Terminal Aerodrome Forecast
Issued by NWS

Home | Current Version | Previous Version | Text Only | Print | Product List | Glossary On
Versions: 1 2 3 4 5 6 7 8 9 10 11 12 13 14 15 16 17
000
FTUS41 KBTV 250533
TAFMSS
TAF
KMSS 250533Z 2506/2606 23005KT P6SM SCT070
     FM251600 23008KT P6SM VCSH BKN050
     FM260200 24006KT P6SM BKN050=

USA.gov is the U.S. government's official web portal to all federal, state and local government web resources and services.